createdAt,value
2017-09-11T00:01:06.174Z,25.20
2017-09-11T00:03:33.729Z,24.50
2017-09-11T00:06:01.253Z,24.80
2017-09-11T00:08:28.786Z,24.37
2017-09-11T00:10:56.310Z,24.20
2017-09-11T00:13:23.873Z,25.97
2017-09-11T00:15:51.397Z,24.87
2017-09-11T00:18:18.919Z,25.70
2017-09-11T00:20:46.449Z,25.00
2017-09-11T00:23:13.978Z,26.20
2017-09-11T00:25:42.277Z,25.90
2017-09-11T00:28:09.869Z,26.00
2017-09-11T00:30:37.394Z,25.50
2017-09-11T00:33:04.922Z,25.70
2017-09-11T00:35:32.460Z,26.37
2017-09-11T00:38:00.001Z,25.33
2017-09-11T00:40:27.534Z,26.00
2017-09-11T00:42:55.058Z,25.57
2017-09-11T00:45:23.359Z,27.20
2017-09-11T00:47:50.885Z,26.00
2017-09-11T00:50:18.411Z,25.30
2017-09-11T00:52:45.940Z,26.77
2017-09-11T00:55:13.470Z,24.73
2017-09-11T00:57:41.768Z,26.03
2017-09-11T01:00:09.293Z,25.23
2017-09-11T01:02:36.921Z,25.67
2017-09-11T01:05:04.448Z,25.67
2017-09-11T01:07:31.986Z,27.50
2017-09-11T01:10:00.286Z,27.60
2017-09-11T01:12:27.815Z,27.30
2017-09-11T01:14:56.111Z,26.23
2017-09-11T01:17:24.405Z,27.67
2017-09-11T01:19:51.937Z,28.47
2017-09-11T01:22:20.225Z,27.23
2017-09-11T01:24:47.750Z,28.17
2017-09-11T01:27:15.269Z,26.13
2017-09-11T01:29:42.794Z,27.07
2017-09-11T01:32:11.086Z,28.53
2017-09-11T01:34:38.613Z,27.17
2017-09-11T01:37:06.909Z,27.80
2017-09-11T01:39:34.438Z,26.87
2017-09-11T01:42:01.969Z,26.50
2017-09-11T01:44:29.502Z,25.43
2017-09-11T01:46:57.033Z,26.10
2017-09-11T01:49:24.569Z,26.60
2017-09-11T01:51:52.865Z,25.50
2017-09-11T01:54:21.155Z,26.47
2017-09-11T01:56:48.693Z,25.30
2017-09-11T01:59:16.986Z,25.50
2017-09-11T02:01:44.510Z,24.67
2017-09-11T02:04:12.083Z,25.77
2017-09-11T02:06:40.378Z,24.83
2017-09-11T02:09:07.921Z,24.40
2017-09-11T02:11:36.249Z,25.60
2017-09-11T02:14:03.781Z,24.70
2017-09-11T02:16:31.302Z,24.47
2017-09-11T02:18:58.874Z,24.83
2017-09-11T02:21:27.171Z,25.33
2017-09-11T02:23:54.698Z,25.27
2017-09-11T02:26:23.001Z,25.63
2017-09-11T02:28:50.526Z,23.73
2017-09-11T02:31:18.053Z,24.83
2017-09-11T02:33:45.594Z,23.63
2017-09-11T02:36:13.126Z,24.43
2017-09-11T02:38:40.657Z,24.50
2017-09-11T02:41:08.194Z,24.93
2017-09-11T02:43:35.719Z,25.10
2017-09-11T02:46:03.243Z,24.47
2017-09-11T02:48:31.548Z,23.50
2017-09-11T02:50:59.094Z,24.83
2017-09-11T02:53:27.386Z,24.40
2017-09-11T02:55:54.924Z,23.73
2017-09-11T02:58:22.458Z,25.90
2017-09-11T03:00:49.981Z,24.47
2017-09-11T03:03:17.508Z,24.70
2017-09-11T03:05:45.035Z,25.27
2017-09-11T03:08:12.591Z,24.37
2017-09-11T03:10:40.120Z,23.30
2017-09-11T03:13:07.646Z,25.30
2017-09-11T03:15:35.176Z,25.60
2017-09-11T03:18:03.481Z,24.67
2017-09-11T03:20:31.042Z,26.37
2017-09-11T03:22:58.566Z,23.47
2017-09-11T03:25:26.869Z,24.63
2017-09-11T03:27:54.406Z,23.93
2017-09-11T03:30:22.731Z,23.67
2017-09-11T03:32:50.446Z,23.47
2017-09-11T03:35:17.993Z,24.60
2017-09-11T03:37:45.518Z,26.10
2017-09-11T03:40:13.049Z,24.90
2017-09-11T03:42:40.576Z,25.47
2017-09-11T03:45:08.890Z,25.83
2017-09-11T03:47:36.415Z,25.20
2017-09-11T03:50:04.705Z,23.37
2017-09-11T03:52:32.238Z,24.77
2017-09-11T03:54:59.761Z,24.97
2017-09-11T03:57:27.311Z,25.63
2017-09-11T03:59:54.844Z,25.07
2017-09-11T04:02:22.373Z,25.30
2017-09-11T04:04:49.893Z,25.67
2017-09-11T04:07:17.422Z,25.43
2017-09-11T04:09:45.012Z,25.97
2017-09-11T04:12:12.581Z,26.60
2017-09-11T04:14:40.111Z,26.10
2017-09-11T04:17:07.633Z,26.80
2017-09-11T04:19:35.921Z,26.60
2017-09-11T04:22:04.237Z,26.83
2017-09-11T04:24:31.762Z,26.93
2017-09-11T04:26:59.292Z,26.40
2017-09-11T04:29:27.577Z,27.00
2017-09-11T04:31:55.870Z,27.47
2017-09-11T04:34:23.427Z,26.47
2017-09-11T04:36:50.955Z,26.30
2017-09-11T04:39:18.480Z,26.60
2017-09-11T04:41:46.022Z,26.17
2017-09-11T04:44:13.596Z,26.47
2017-09-11T04:46:41.154Z,27.37
2017-09-11T04:49:08.681Z,26.23
2017-09-11T04:51:36.209Z,26.43
2017-09-11T04:54:03.742Z,26.50
2017-09-11T04:56:31.275Z,26.73
2017-09-11T04:58:58.837Z,27.27
2017-09-11T05:01:26.372Z,27.83
2017-09-11T05:03:53.897Z,26.13
2017-09-11T05:06:21.421Z,28.00
2017-09-11T05:08:48.950Z,27.60
2017-09-11T05:11:16.501Z,27.47
2017-09-11T05:13:44.026Z,27.50
2017-09-11T05:16:11.558Z,27.83
2017-09-11T05:18:39.085Z,27.37
2017-09-11T05:21:06.613Z,28.00
2017-09-11T05:23:34.954Z,28.07
2017-09-11T05:26:02.478Z,27.17
2017-09-11T05:28:30.009Z,29.00
2017-09-11T05:30:58.333Z,28.10
2017-09-11T05:33:25.861Z,27.93
2017-09-11T05:35:54.178Z,28.17
2017-09-11T05:38:21.702Z,28.40
2017-09-11T05:40:49.222Z,27.87
2017-09-11T05:43:16.754Z,30.03
2017-09-11T05:45:44.278Z,30.00
2017-09-11T05:48:11.836Z,29.67
2017-09-11T05:50:39.366Z,30.53
2017-09-11T05:53:07.676Z,31.03
2017-09-11T05:55:35.198Z,34.03
2017-09-11T05:58:03.510Z,30.70
2017-09-11T06:00:31.118Z,33.40
2017-09-11T06:02:58.638Z,32.83
2017-09-11T06:05:26.180Z,33.73
2017-09-11T06:07:53.749Z,35.10
2017-09-11T06:10:21.279Z,34.20
2017-09-11T06:12:49.602Z,33.37
2017-09-11T06:15:17.134Z,35.67
2017-09-11T06:17:44.666Z,35.87
2017-09-11T06:20:12.955Z,34.93
2017-09-11T06:22:40.487Z,34.97
2017-09-11T06:25:08.805Z,34.33
2017-09-11T06:27:36.330Z,35.80
2017-09-11T06:30:04.630Z,33.50
2017-09-11T06:32:32.153Z,33.30
2017-09-11T06:35:00.090Z,32.33
2017-09-11T06:37:28.042Z,33.67
2017-09-11T06:39:55.682Z,32.13
2017-09-11T06:42:23.619Z,33.77
2017-09-11T06:44:51.486Z,32.70
2017-09-11T06:47:20.307Z,31.43
2017-09-11T06:49:48.096Z,31.50
2017-09-11T06:52:16.178Z,31.20
2017-09-11T06:54:44.150Z,32.77
2017-09-11T06:57:11.688Z,30.37
2017-09-11T06:59:39.258Z,30.00
2017-09-11T07:02:06.811Z,30.80
2017-09-11T07:04:34.341Z,30.57
2017-09-11T07:07:01.869Z,30.77
2017-09-11T07:09:29.398Z,29.13
2017-09-11T07:12:08.726Z,30.70
2017-09-11T07:14:36.265Z,30.53
2017-09-11T07:17:03.794Z,31.27
2017-09-11T07:19:32.114Z,31.73
2017-09-11T07:21:59.653Z,29.50
2017-09-11T07:24:27.178Z,31.37
2017-09-11T07:26:55.478Z,32.50
2017-09-11T07:29:23.007Z,30.67
2017-09-11T07:31:50.562Z,32.73
2017-09-11T07:34:18.089Z,33.43
2017-09-11T07:36:45.613Z,32.87
2017-09-11T07:39:13.903Z,31.93
2017-09-11T07:41:41.433Z,33.77
2017-09-11T07:44:09.725Z,32.73
2017-09-11T07:46:37.249Z,32.90
2017-09-11T07:49:05.582Z,32.27
2017-09-11T07:51:33.111Z,34.73
2017-09-11T07:54:01.393Z,32.27
2017-09-11T07:56:28.919Z,33.20
2017-09-11T07:58:56.449Z,33.43
2017-09-11T08:01:24.009Z,32.43
2017-09-11T08:03:51.539Z,32.47
2017-09-11T08:06:19.111Z,32.93
2017-09-11T08:08:46.645Z,32.00
2017-09-11T08:11:14.172Z,32.90
2017-09-11T08:13:42.496Z,33.57
2017-09-11T08:16:10.017Z,31.60
2017-09-11T08:18:38.306Z,31.50
2017-09-11T08:21:06.605Z,31.60
2017-09-11T08:23:34.133Z,31.10
2017-09-11T08:26:02.450Z,33.03
2017-09-11T08:28:29.981Z,32.60
2017-09-11T08:30:57.517Z,32.10
2017-09-11T08:33:25.817Z,32.57
2017-09-11T08:35:53.354Z,32.67
2017-09-11T08:38:21.678Z,33.00
2017-09-11T08:40:49.203Z,31.33
2017-09-11T08:43:17.498Z,31.50
2017-09-11T08:45:45.028Z,31.53
2017-09-11T08:48:13.328Z,30.37
2017-09-11T08:50:40.998Z,30.37
2017-09-11T08:53:08.522Z,31.20
2017-09-11T08:55:36.826Z,30.00
2017-09-11T08:58:04.363Z,29.30
2017-09-11T09:00:31.890Z,29.30
2017-09-11T09:02:59.510Z,29.23
2017-09-11T09:05:27.073Z,30.17
2017-09-11T09:07:54.602Z,31.20
2017-09-11T09:10:22.133Z,30.50
2017-09-11T09:12:50.468Z,29.50
2017-09-11T09:15:18.021Z,27.13
2017-09-11T09:17:45.557Z,28.30
2017-09-11T09:20:13.088Z,28.97
2017-09-11T09:22:41.687Z,28.20
2017-09-11T09:25:09.986Z,27.27
2017-09-11T09:27:37.545Z,27.50
2017-09-11T09:30:05.078Z,27.70
2017-09-11T09:32:33.374Z,27.50
2017-09-11T09:35:00.955Z,27.47
2017-09-11T09:37:28.494Z,26.03
2017-09-11T09:39:56.169Z,25.87
2017-09-11T09:42:23.703Z,26.87
2017-09-11T09:44:51.234Z,27.37
2017-09-11T09:47:18.760Z,25.57
2017-09-11T09:49:46.286Z,26.40
2017-09-11T09:52:13.837Z,26.77
2017-09-11T09:54:41.371Z,26.53
2017-09-11T09:57:09.662Z,26.73
2017-09-11T09:59:37.949Z,25.67
2017-09-11T10:02:05.589Z,26.00
2017-09-11T10:04:33.914Z,26.50
2017-09-11T10:07:01.590Z,25.43
2017-09-11T10:09:29.327Z,26.03
2017-09-11T10:11:57.072Z,24.20
2017-09-11T10:14:25.589Z,25.07
2017-09-11T10:16:53.324Z,24.77
2017-09-11T10:19:21.087Z,24.70
2017-09-11T10:21:48.767Z,23.77
2017-09-11T10:24:16.301Z,22.93
2017-09-11T10:26:43.828Z,25.73
2017-09-11T10:29:11.378Z,23.70
2017-09-11T10:31:39.953Z,22.67
2017-09-11T10:34:07.489Z,20.10
2017-09-11T10:36:35.230Z,19.90
2017-09-11T10:39:02.846Z,20.93
2017-09-11T10:41:31.414Z,19.70
2017-09-11T10:43:58.940Z,20.03
2017-09-11T10:46:26.473Z,19.57
2017-09-11T10:48:54.768Z,20.13
2017-09-11T10:51:22.295Z,19.10
2017-09-11T10:53:50.622Z,19.70
2017-09-11T10:56:18.390Z,19.20
2017-09-11T10:58:46.226Z,20.00
2017-09-11T11:01:13.758Z,20.57
2017-09-11T11:03:42.058Z,19.97
2017-09-11T11:06:09.616Z,19.77
2017-09-11T11:08:37.146Z,19.23
2017-09-11T11:11:04.670Z,19.30
2017-09-11T11:13:32.198Z,19.50
2017-09-11T11:15:59.726Z,19.87
2017-09-11T11:18:28.055Z,19.90
2017-09-11T11:20:55.582Z,21.10
2017-09-11T11:23:23.114Z,19.47
2017-09-11T11:26:12.344Z,20.00
2017-09-11T11:28:40.794Z,20.63
2017-09-11T11:31:08.356Z,20.20
2017-09-11T11:33:35.903Z,22.20
2017-09-11T11:36:03.446Z,21.30
2017-09-11T11:38:31.746Z,20.47
2017-09-11T11:40:59.274Z,20.70
2017-09-11T11:43:27.601Z,20.00
2017-09-11T11:45:55.121Z,19.40
2017-09-11T11:48:23.414Z,20.43
2017-09-11T11:50:50.938Z,19.90
2017-09-11T11:53:19.230Z,19.53
2017-09-11T11:55:47.550Z,20.03
2017-09-11T11:58:15.078Z,20.10
2017-09-11T12:00:42.602Z,20.27
2017-09-11T12:03:10.130Z,19.93
2017-09-11T12:05:37.654Z,19.60
2017-09-11T12:08:05.213Z,20.37
2017-09-11T12:10:32.750Z,19.40
2017-09-11T12:13:01.050Z,19.90
2017-09-11T12:15:28.829Z,19.50
2017-09-11T12:17:56.357Z,19.63
2017-09-11T12:20:24.674Z,25.33
2017-09-11T12:22:52.211Z,19.50
2017-09-11T12:25:19.742Z,19.90
2017-09-11T12:27:48.192Z,18.87
2017-09-11T12:30:15.726Z,20.47
2017-09-11T12:32:43.286Z,18.80
2017-09-11T12:35:10.822Z,18.93
2017-09-11T12:37:38.704Z,19.80
2017-09-11T12:40:06.233Z,20.20
2017-09-11T12:42:34.609Z,20.33
2017-09-11T12:45:02.289Z,19.83
2017-09-11T12:47:30.072Z,20.37
2017-09-11T12:49:58.802Z,19.73
2017-09-11T12:52:26.336Z,20.50
2017-09-11T12:54:53.878Z,19.77
2017-09-11T12:57:21.429Z,19.57
2017-09-11T12:59:48.957Z,20.23
2017-09-11T13:02:17.305Z,20.10
2017-09-11T13:04:44.826Z,20.10
2017-09-11T13:07:12.360Z,19.30
2017-09-11T13:09:39.946Z,19.83
2017-09-11T13:12:07.478Z,21.10
2017-09-11T13:14:35.128Z,21.17
2017-09-11T13:17:03.425Z,20.27
2017-09-11T13:19:31.098Z,20.37
2017-09-11T13:21:58.652Z,19.90
2017-09-11T13:24:26.685Z,20.70
2017-09-11T13:26:54.977Z,19.97
2017-09-11T13:29:23.279Z,20.97
2017-09-11T13:31:50.822Z,22.77
2017-09-11T13:34:18.378Z,20.53
2017-09-11T13:36:45.906Z,21.00
2017-09-11T13:39:13.429Z,20.80
2017-09-11T13:41:40.954Z,21.40
2017-09-11T13:44:08.478Z,19.77
2017-09-11T13:46:36.029Z,21.03
2017-09-11T13:49:03.562Z,21.37
2017-09-11T13:51:31.104Z,20.53
2017-09-11T13:53:58.633Z,20.23
2017-09-11T13:56:26.925Z,20.13
2017-09-11T13:58:54.490Z,20.77
2017-09-11T14:01:22.019Z,20.87
2017-09-11T14:03:50.309Z,46.17
2017-09-11T14:06:18.634Z,23.27
2017-09-11T14:08:46.730Z,21.47
2017-09-11T14:11:14.268Z,22.10
2017-09-11T14:13:41.818Z,23.50
2017-09-11T14:16:09.382Z,22.60
2017-09-11T14:18:37.026Z,21.77
2017-09-11T14:21:05.230Z,21.33
2017-09-11T14:23:35.821Z,21.03
2017-09-11T14:26:03.538Z,22.00
2017-09-11T14:28:31.823Z,21.33
2017-09-11T14:31:00.114Z,21.40
2017-09-11T14:33:27.669Z,20.83
2017-09-11T14:35:55.970Z,21.40
2017-09-11T14:38:23.500Z,22.20
2017-09-11T14:40:52.077Z,22.13
2017-09-11T14:43:20.378Z,21.30
2017-09-11T14:45:48.444Z,22.23
2017-09-11T14:48:16.002Z,22.30
2017-09-11T14:50:43.532Z,21.80
2017-09-11T14:53:11.903Z,25.20
2017-09-11T14:55:39.465Z,22.60
2017-09-11T14:58:07.772Z,26.50
2017-09-11T15:00:35.297Z,24.00
2017-09-11T15:03:03.620Z,23.10
2017-09-11T15:05:31.289Z,23.17
2017-09-11T15:07:59.746Z,23.60
2017-09-11T15:10:27.302Z,22.73
2017-09-11T15:12:54.838Z,23.00
2017-09-11T15:15:23.139Z,22.53
2017-09-11T15:17:51.252Z,22.80
2017-09-11T15:20:18.778Z,23.37
2017-09-11T15:22:46.304Z,25.10
2017-09-11T15:25:14.838Z,23.70
2017-09-11T15:27:42.373Z,23.70
2017-09-11T15:30:10.574Z,23.63
2017-09-11T15:32:38.126Z,24.27
2017-09-11T15:35:05.655Z,25.17
2017-09-11T15:37:33.191Z,25.37
2017-09-11T15:40:01.522Z,26.10
2017-09-11T15:42:29.049Z,27.07
2017-09-11T15:44:56.590Z,25.40
2017-09-11T15:47:24.913Z,26.60
2017-09-11T15:49:53.080Z,27.10
2017-09-11T15:52:21.574Z,27.50
2017-09-11T15:54:49.134Z,28.40
2017-09-11T15:57:16.668Z,31.07
2017-09-11T15:59:44.198Z,28.03
2017-09-11T16:02:12.526Z,26.33
2017-09-11T16:04:40.055Z,31.53
2017-09-11T16:07:07.586Z,43.93
2017-09-11T16:09:35.910Z,28.50
2017-09-11T16:12:03.440Z,43.37
2017-09-11T16:14:31.730Z,29.20
2017-09-11T16:16:59.287Z,27.10
2017-09-11T16:19:26.878Z,30.07
2017-09-11T16:21:54.519Z,29.00
2017-09-11T16:24:22.083Z,27.00
2017-09-11T16:26:49.614Z,28.17
2017-09-11T16:29:17.174Z,27.17
2017-09-11T16:31:44.741Z,29.10
2017-09-11T16:34:12.363Z,27.70
2017-09-11T16:36:39.889Z,29.93
2017-09-11T16:39:49.518Z,30.83
2017-09-11T16:42:17.069Z,28.63
2017-09-11T16:44:44.622Z,28.27
2017-09-11T16:47:12.154Z,27.40
2017-09-11T16:49:40.452Z,26.07
2017-09-11T16:52:11.778Z,26.20
2017-09-11T16:54:39.457Z,26.63
2017-09-11T16:57:07.180Z,25.60
2017-09-11T16:59:34.728Z,25.30
2017-09-11T17:02:02.256Z,25.00
2017-09-11T17:04:29.788Z,25.13
2017-09-11T17:06:57.438Z,24.87
2017-09-11T17:09:25.766Z,24.13
2017-09-11T17:11:53.290Z,23.60
2017-09-11T17:14:20.825Z,23.60
2017-09-11T17:16:49.124Z,23.00
2017-09-11T17:19:16.701Z,25.67
2017-09-11T17:21:44.293Z,25.63
2017-09-11T17:24:11.823Z,25.97
2017-09-11T17:26:39.350Z,29.17
2017-09-11T17:29:07.655Z,24.90
2017-09-11T17:31:35.186Z,24.80
2017-09-11T17:34:03.506Z,27.60
2017-09-11T17:36:31.033Z,25.50
2017-09-11T17:38:58.570Z,24.80
2017-09-11T17:41:26.875Z,25.87
2017-09-11T17:43:54.458Z,26.30
2017-09-11T17:46:22.018Z,26.67
2017-09-11T17:48:49.565Z,26.57
2017-09-11T17:51:17.108Z,27.40
2017-09-11T17:53:44.641Z,25.27
2017-09-11T17:56:12.940Z,25.93
2017-09-11T17:58:40.490Z,25.47
2017-09-11T18:01:08.029Z,27.23
2017-09-11T18:03:36.335Z,28.37
2017-09-11T18:06:03.863Z,28.70
2017-09-11T18:08:32.166Z,30.17
2017-09-11T18:10:59.730Z,28.00
2017-09-11T18:13:27.266Z,30.70
2017-09-11T18:15:55.557Z,32.00
2017-09-11T18:18:23.094Z,30.87
2017-09-11T18:20:51.394Z,31.20
2017-09-11T18:23:18.954Z,26.50
2017-09-11T18:25:46.482Z,26.80
2017-09-11T18:28:14.786Z,27.80
2017-09-11T18:30:42.322Z,30.03
2017-09-11T18:33:10.619Z,28.70
2017-09-11T18:35:38.182Z,26.03
2017-09-11T18:38:05.722Z,28.70
2017-09-11T18:40:34.040Z,30.37
2017-09-11T18:43:01.566Z,27.00
2017-09-11T18:45:29.102Z,28.50
2017-09-11T18:47:57.449Z,27.97
2017-09-11T18:50:24.979Z,28.37
2017-09-11T18:52:52.542Z,29.90
2017-09-11T18:55:20.076Z,29.90
2017-09-11T18:57:47.609Z,31.40
2017-09-11T19:00:15.942Z,29.87
2017-09-11T19:02:43.482Z,29.63
2017-09-11T19:05:11.013Z,30.53
2017-09-11T19:07:39.309Z,30.33
2017-09-11T19:10:06.862Z,31.47
2017-09-11T19:12:35.021Z,29.83
2017-09-11T19:15:03.313Z,31.53
2017-09-11T19:17:30.846Z,30.57
2017-09-11T19:19:58.376Z,30.17
2017-09-11T19:22:25.910Z,28.87
2017-09-11T19:24:53.468Z,31.47
2017-09-11T19:27:20.989Z,32.30
2017-09-11T19:29:49.285Z,30.83
2017-09-11T19:32:16.849Z,31.17
2017-09-11T19:34:44.378Z,30.37
2017-09-11T19:37:12.698Z,30.90
2017-09-11T19:39:40.237Z,31.37
2017-09-11T19:42:07.765Z,50.43
2017-09-11T19:44:36.078Z,38.50
2017-09-11T19:47:03.651Z,32.30
2017-09-11T19:49:31.220Z,32.93
2017-09-11T19:51:58.850Z,29.90
2017-09-11T19:54:26.383Z,32.33
2017-09-11T19:56:54.844Z,32.20
2017-09-11T19:59:22.427Z,32.60
2017-09-11T20:01:49.999Z,34.27
2017-09-11T20:04:18.406Z,33.63
2017-09-11T20:06:46.866Z,32.37
2017-09-11T20:09:14.431Z,31.87
2017-09-11T20:11:41.956Z,30.73
2017-09-11T20:14:10.260Z,31.10
2017-09-11T20:16:38.169Z,33.63
2017-09-11T20:19:05.915Z,31.57
2017-09-11T20:21:33.482Z,30.90
2017-09-11T20:24:01.019Z,33.00
2017-09-11T20:26:28.547Z,32.53
2017-09-11T20:28:56.868Z,30.40
2017-09-11T20:31:24.418Z,31.77
2017-09-11T20:33:51.946Z,29.50
2017-09-11T20:36:20.244Z,30.73
2017-09-11T20:38:47.769Z,30.47
2017-09-11T20:41:16.066Z,30.23
2017-09-11T20:43:43.628Z,28.77
2017-09-11T20:46:11.157Z,30.50
2017-09-11T20:48:39.457Z,27.40
2017-09-11T20:51:06.981Z,30.47
2017-09-11T20:53:34.506Z,28.10
2017-09-11T20:56:02.067Z,28.03
2017-09-11T20:58:29.594Z,29.47
2017-09-11T21:00:57.118Z,28.87
2017-09-11T21:03:24.646Z,28.70
2017-09-11T21:05:52.191Z,28.90
2017-09-11T21:08:19.748Z,29.23
2017-09-11T21:10:47.278Z,27.90
2017-09-11T21:13:15.566Z,28.50
2017-09-11T21:15:43.093Z,28.67
2017-09-11T21:18:11.393Z,28.23
2017-09-11T21:20:38.954Z,28.13
2017-09-11T21:23:06.482Z,28.87
2017-09-11T21:25:34.794Z,27.17
2017-09-11T21:28:02.322Z,28.23
2017-09-11T21:30:30.617Z,27.07
2017-09-11T21:32:58.147Z,26.80
2017-09-11T21:35:25.678Z,26.90
2017-09-11T21:37:53.210Z,25.83
2017-09-11T21:40:20.738Z,25.83
2017-09-11T21:42:49.033Z,27.87
2017-09-11T21:45:16.562Z,26.43
2017-09-11T21:47:44.868Z,26.80
2017-09-11T21:50:12.402Z,27.10
2017-09-11T21:52:40.718Z,26.87
2017-09-11T21:55:08.239Z,26.23
2017-09-11T21:57:36.530Z,27.70
2017-09-11T22:00:04.060Z,27.60
2017-09-11T22:02:31.591Z,28.23
2017-09-11T22:04:59.233Z,28.53
2017-09-11T22:07:26.767Z,27.77
2017-09-11T22:09:54.353Z,26.70
2017-09-11T22:12:21.881Z,27.73
2017-09-11T22:14:49.409Z,26.50
2017-09-11T22:17:16.945Z,25.30
2017-09-11T22:19:44.486Z,26.30
2017-09-11T22:22:12.015Z,27.00
2017-09-11T22:24:39.542Z,25.30
2017-09-11T22:27:07.093Z,26.73
2017-09-11T22:29:34.622Z,26.50
2017-09-11T22:32:02.148Z,27.10
2017-09-11T22:34:29.707Z,27.80
2017-09-11T22:36:57.241Z,27.30
2017-09-11T22:39:25.534Z,26.97
2017-09-11T22:41:53.847Z,26.60
2017-09-11T22:44:21.380Z,26.27
2017-09-11T22:46:48.905Z,25.70
2017-09-11T22:49:16.462Z,25.63
2017-09-11T22:51:44.770Z,26.60
2017-09-11T22:54:12.305Z,24.93
2017-09-11T22:56:40.638Z,25.77
2017-09-11T22:59:08.161Z,25.13
2017-09-11T23:01:35.690Z,26.47
2017-09-11T23:04:03.255Z,25.13
2017-09-11T23:06:31.554Z,25.17
2017-09-11T23:08:59.078Z,25.50
2017-09-11T23:11:26.636Z,24.97
2017-09-11T23:13:54.169Z,25.40
2017-09-11T23:16:21.699Z,25.30
2017-09-11T23:18:49.259Z,27.20
2017-09-11T23:21:16.782Z,25.33
2017-09-11T23:23:45.078Z,26.30
2017-09-11T23:26:12.610Z,26.07
2017-09-11T23:28:40.914Z,24.20
2017-09-11T23:31:08.470Z,25.03
2017-09-11T23:33:36.014Z,26.70
2017-09-11T23:36:04.310Z,25.87
2017-09-11T23:38:31.860Z,27.37
2017-09-11T23:41:00.156Z,26.83
2017-09-11T23:43:27.682Z,26.37
2017-09-11T23:45:55.978Z,28.00
2017-09-11T23:48:23.507Z,29.30
2017-09-11T23:50:51.828Z,27.40
2017-09-11T23:53:19.350Z,27.23
2017-09-11T23:55:47.670Z,27.77
2017-09-11T23:58:15.199Z,27.37
